Time;durP1;ratioP1;P1;durP2;ratioP2;P2;SDS_P1;SDS_P2;PMS_P1;PMS_P2;Temp;Humidity;BMP_temperature;BMP_pressure;BME280_temperature;BME280_humidity;BME280_pressure;Samples;Min_cycle;Max_cycle;Signal;HPM_P1;HPM_P2
2023/02/28 00:00:11;;;;;;;9.23;3.10;;;;;;;0.32;91.98;102617.41;4993937;28;20583;-64
2023/02/28 00:02:38;;;;;;;7.93;3.27;;;;;;;0.32;92.20;102607.56;4994147;28;20480;-63
2023/02/28 00:05:06;;;;;;;7.57;3.10;;;;;;;0.28;92.41;102614.25;4994280;28;20528;-64
2023/02/28 00:07:33;;;;;;;7.63;2.60;;;;;;;0.34;91.73;102615.34;4994384;28;20552;-63
2023/02/28 00:09:59;;;;;;;10.10;3.17;;;;;;;0.28;91.87;102614.25;4994212;28;20547;-63
2023/02/28 00:12:26;;;;;;;7.10;2.33;;;;;;;0.21;92.59;102613.31;4993909;28;20977;-63
2023/02/28 00:14:54;;;;;;;11.60;3.70;;;;;;;0.20;92.45;102611.66;4994186;28;20527;-63
2023/02/28 00:17:21;;;;;;;7.37;2.53;;;;;;;0.12;92.84;102614.41;4994158;28;20535;-63
2023/02/28 00:19:49;;;;;;;7.50;2.40;;;;;;;0.10;93.03;102619.09;4993955;28;20604;-63
2023/02/28 00:22:16;;;;;;;10.47;3.27;;;;;;;0.06;92.96;102613.31;4994117;28;20914;-63
2023/02/28 00:24:42;;;;;;;7.30;2.57;;;;;;;0.03;93.44;102607.50;4994040;28;20527;-63
2023/02/28 00:27:09;;;;;;;9.00;2.80;;;;;;;0.11;94.02;102613.59;4994021;28;20527;-62
2023/02/28 00:29:36;;;;;;;7.97;2.50;;;;;;;0.17;94.24;102610.19;4993955;28;20465;-63
2023/02/28 00:32:04;;;;;;;7.40;2.60;;;;;;;0.09;95.23;102610.28;4993701;28;20524;-63
2023/02/28 00:34:32;;;;;;;8.57;3.70;;;;;;;0.06;95.84;102615.97;4993615;28;20449;-63
2023/02/28 00:36:58;;;;;;;8.10;3.00;;;;;;;0.23;94.93;102622.81;4994093;28;20795;-63
2023/02/28 00:39:25;;;;;;;10.83;2.87;;;;;;;0.29;94.27;102620.41;4993764;28;20510;-63
2023/02/28 00:41:52;;;;;;;9.80;3.20;;;;;;;0.34;94.11;102624.19;4993924;28;20528;-63
2023/02/28 00:44:21;;;;;;;8.63;3.30;;;;;;;0.29;94.17;102623.06;4993562;28;20445;-63
2023/02/28 00:46:47;;;;;;;9.27;3.13;;;;;;;0.24;93.98;102623.63;4993799;28;20492;-62
2023/02/28 00:49:15;;;;;;;9.77;2.90;;;;;;;0.16;95.22;102613.88;4993379;28;20457;-63
2023/02/28 00:51:42;;;;;;;9.37;3.77;;;;;;;0.26;94.68;102613.59;4993812;28;20485;-63
2023/02/28 00:54:09;;;;;;;10.67;3.60;;;;;;;0.27;94.39;102617.94;4993548;28;21041;-63
2023/02/28 00:56:36;;;;;;;8.90;3.77;;;;;;;0.08;95.21;102629.91;4993766;28;20448;-62
2023/02/28 00:59:02;;;;;;;10.43;3.60;;;;;;;0.05;95.08;102627.63;4993339;28;20488;-63
2023/02/28 01:01:29;;;;;;;7.57;3.17;;;;;;;0.11;94.46;102624.25;4993401;28;20804;-63
2023/02/28 01:03:55;;;;;;;10.03;3.70;;;;;;;0.01;93.56;102621.03;4993334;28;20942;-63
2023/02/28 01:06:23;;;;;;;8.77;2.93;;;;;;;-0.03;93.79;102620.53;4993550;28;20449;-63
2023/02/28 01:08:50;;;;;;;9.47;3.47;;;;;;;-0.11;94.32;102617.94;4993496;28;20464;-63
2023/02/28 01:11:18;;;;;;;8.43;3.80;;;;;;;-0.10;94.39;102624.09;4993646;28;20445;-62
2023/02/28 01:13:47;;;;;;;10.10;3.27;;;;;;;-0.21;93.76;102619.22;4993593;28;20448;-63
2023/02/28 01:16:14;;;;;;;10.60;3.10;;;;;;;-0.37;93.74;102613.00;4995817;28;20441;-63
2023/02/28 01:18:41;;;;;;;8.77;3.30;;;;;;;-0.36;94.05;102625.28;4997032;28;21028;-63
2023/02/28 01:21:10;;;;;;;10.50;3.83;;;;;;;-0.32;93.89;102615.94;4997093;28;21017;-63
2023/02/28 01:23:37;;;;;;;7.50;2.50;;;;;;;-0.35;93.89;102612.84;4997045;28;20976;-63
2023/02/28 01:26:06;;;;;;;7.73;2.93;;;;;;;-0.35;93.99;102610.16;4997292;28;20437;-63
2023/02/28 01:28:32;;;;;;;7.50;2.83;;;;;;;-0.39;94.06;102611.53;4996879;28;20445;-63
2023/02/28 01:30:59;;;;;;;10.67;4.60;;;;;;;-0.39;94.04;102604.38;4997190;28;20564;-64
2023/02/28 01:33:26;;;;;;;10.07;3.60;;;;;;;-0.46;94.89;102600.75;4997177;28;20536;-64
2023/02/28 01:35:58;;;;;;;11.97;4.10;;;;;;;-0.45;95.26;102599.75;4997170;28;20452;-63
2023/02/28 01:38:25;;;;;;;8.80;3.03;;;;;;;-0.38;95.52;102605.19;4996716;28;20425;-63
2023/02/28 01:40:53;;;;;;;8.33;2.80;;;;;;;-0.44;95.32;102595.25;4996913;28;20469;-63
2023/02/28 01:43:25;;;;;;;8.10;2.73;;;;;;;-0.46;94.55;102597.28;4997003;28;20448;-63
2023/02/28 01:45:53;;;;;;;16.57;3.50;;;;;;;-0.58;95.03;102595.00;4996949;28;20515;-63
2023/02/28 01:48:21;;;;;;;7.13;2.70;;;;;;;-0.52;95.08;102596.16;4996626;28;20938;-63
2023/02/28 01:50:49;;;;;;;7.40;2.70;;;;;;;-0.48;95.00;102597.44;4996531;28;20997;-63
2023/02/28 01:53:20;;;;;;;10.10;3.03;;;;;;;-0.51;95.30;102595.97;4996892;28;20456;-63
2023/02/28 01:55:51;;;;;;;14.27;4.20;;;;;;;-0.61;94.79;102589.22;4996452;28;20472;-63
2023/02/28 01:58:20;;;;;;;9.37;2.70;;;;;;;-0.68;94.71;102598.91;4996718;28;20437;-63
2023/02/28 02:00:46;;;;;;;7.20;2.70;;;;;;;-0.74;95.04;102599.63;4996250;28;20933;-63
2023/02/28 02:03:15;;;;;;;7.10;2.70;;;;;;;-0.84;95.03;102600.69;4996369;28;20535;-63
2023/02/28 02:05:47;;;;;;;7.50;3.17;;;;;;;-1.00;96.73;102598.09;4996628;28;20532;-63
2023/02/28 02:08:18;;;;;;;7.07;2.67;;;;;;;-0.91;95.79;102597.06;4996296;28;20433;-63
2023/02/28 02:10:49;;;;;;;8.73;3.47;;;;;;;-1.03;96.18;102588.63;4996415;28;20465;-61
2023/02/28 02:13:30;;;;;;;6.13;2.53;;;;;;;-1.08;97.79;102595.50;4996530;28;20848;-63
2023/02/28 02:16:05;;;;;;;8.33;3.00;;;;;;;-1.00;96.45;102600.78;4996439;28;20516;-63
2023/02/28 02:18:39;;;;;;;6.90;2.50;;;;;;;-1.01;97.33;102599.13;4996029;28;20475;-62
2023/02/28 02:21:28;;;;;;;13.50;3.20;;;;;;;-0.93;96.34;102591.09;4996409;28;20425;-63
2023/02/28 02:24:36;;;;;;;9.00;3.13;;;;;;;-0.92;95.83;102597.25;4996267;28;20512;-64
2023/02/28 02:27:24;;;;;;;7.60;2.50;;;;;;;-0.96;96.35;102591.44;4995929;28;20428;-63
2023/02/28 02:30:34;;;;;;;8.07;3.07;;;;;;;-1.07;97.07;102586.50;4996067;28;20469;-63
2023/02/28 02:33:29;;;;;;;7.70;2.53;;;;;;;-0.99;96.75;102586.47;4996083;28;20520;-62
2023/02/28 02:36:05;;;;;;;8.70;3.77;;;;;;;-1.08;96.44;102590.16;4995689;28;20878;-63
2023/02/28 02:38:37;;;;;;;9.10;3.10;;;;;;;-1.13;96.75;102595.19;4995958;28;20528;-63
2023/02/28 02:41:12;;;;;;;7.77;3.17;;;;;;;-1.14;96.48;102604.16;4995914;28;20513;-63
2023/02/28 02:43:45;;;;;;;10.30;3.57;;;;;;;-1.22;96.76;102601.53;4995971;28;20428;-64
2023/02/28 02:46:17;;;;;;;8.27;2.87;;;;;;;-1.35;96.03;102591.47;4995543;28;20465;-63
2023/02/28 02:48:46;;;;;;;8.63;3.03;;;;;;;-1.41;97.43;102603.59;4995787;28;20465;-63
2023/02/28 02:51:17;;;;;;;8.63;2.80;;;;;;;-1.36;96.90;102595.13;4995507;28;20445;-63
2023/02/28 02:53:50;;;;;;;7.30;2.77;;;;;;;-1.49;96.74;102595.66;4995494;28;20516;-64
2023/02/28 02:56:20;;;;;;;9.67;2.93;;;;;;;-1.64;95.68;102598.22;4995714;28;20436;-63
2023/02/28 02:58:50;;;;;;;6.30;2.50;;;;;;;-1.73;96.21;102601.03;4995399;28;20451;-63
2023/02/28 03:01:27;;;;;;;7.60;3.20;;;;;;;-1.66;96.19;102591.41;4995333;28;20467;-63
2023/02/28 03:03:56;;;;;;;7.77;3.20;;;;;;;-1.68;97.73;102599.53;4995286;28;20799;-64
2023/02/28 03:06:24;;;;;;;9.30;3.00;;;;;;;-1.74;97.36;102594.88;4995275;28;20481;-64
2023/02/28 03:08:51;;;;;;;6.50;2.13;;;;;;;-1.67;96.25;102589.75;4995319;28;20461;-63
2023/02/28 03:11:20;;;;;;;10.57;3.00;;;;;;;-1.67;95.86;102593.22;4995144;28;20937;-64
2023/02/28 03:13:55;;;;;;;6.97;2.67;;;;;;;-1.72;96.23;102595.56;4995419;28;20453;-63
2023/02/28 03:16:36;;;;;;;8.17;3.20;;;;;;;-1.55;95.05;102593.66;4994979;28;20471;-62
2023/02/28 03:19:32;;;;;;;9.53;3.07;;;;;;;-1.66;94.31;102600.19;4995128;28;20555;-64
2023/02/28 03:22:14;;;;;;;7.30;2.83;;;;;;;-1.70;95.86;102600.69;4994987;28;20863;-65
2023/02/28 03:24:48;;;;;;;9.60;3.30;;;;;;;-1.78;95.22;102604.19;4994866;28;20429;-64
2023/02/28 03:27:22;;;;;;;8.97;2.93;;;;;;;-1.90;95.50;102606.38;4995123;28;20504;-62
2023/02/28 03:29:55;;;;;;;9.27;2.77;;;;;;;-1.76;95.82;102610.19;4995040;28;20820;-64
2023/02/28 03:32:26;;;;;;;7.57;3.00;;;;;;;-1.86;94.99;102605.06;4995056;28;20829;-63
2023/02/28 03:35:00;;;;;;;7.73;2.70;;;;;;;-1.83;95.20;102615.31;4994674;28;20899;-63
2023/02/28 03:37:31;;;;;;;8.07;3.10;;;;;;;-1.83;93.69;102609.19;4994352;28;20925;-63
2023/02/28 03:40:02;;;;;;;7.30;2.00;;;;;;;-1.79;94.29;102614.00;4994754;28;20500;-65
2023/02/28 03:42:32;;;;;;;9.30;2.80;;;;;;;-1.81;94.86;102612.53;4994921;28;20440;-64
2023/02/28 03:45:03;;;;;;;10.67;2.73;;;;;;;-1.94;96.11;102615.69;4994387;28;20535;-64
2023/02/28 03:47:34;;;;;;;7.40;2.70;;;;;;;-1.92;95.74;102611.03;4994353;28;20539;-63
2023/02/28 03:50:07;;;;;;;12.17;3.10;;;;;;;-2.01;96.68;102625.31;4994377;28;20978;-65
2023/02/28 03:52:39;;;;;;;8.40;3.07;;;;;;;-2.20;97.83;102623.81;4994359;28;20907;-63
2023/02/28 03:55:09;;;;;;;6.90;3.00;;;;;;;-2.12;97.84;102621.19;4994583;28;20436;-63
2023/02/28 03:57:41;;;;;;;8.10;2.80;;;;;;;-1.96;96.76;102619.50;4994563;28;20429;-64
2023/02/28 04:00:13;;;;;;;6.07;2.43;;;;;;;-2.06;96.58;102623.16;4993901;28;20495;-63
2023/02/28 04:02:41;;;;;;;8.40;3.00;;;;;;;-2.19;97.91;102624.66;4994466;28;20487;-63
2023/02/28 04:05:08;;;;;;;7.53;2.60;;;;;;;-2.23;97.53;102618.00;4994045;28;20483;-64
2023/02/28 04:07:36;;;;;;;8.67;2.87;;;;;;;-2.30;97.22;102628.47;4994015;28;20451;-63
2023/02/28 04:10:04;;;;;;;6.60;2.73;;;;;;;-2.28;96.87;102624.66;4994247;28;20457;-63
2023/02/28 04:12:31;;;;;;;6.80;3.10;;;;;;;-2.26;96.92;102613.84;4994264;28;20449;-64
2023/02/28 04:14:57;;;;;;;8.33;2.60;;;;;;;-2.19;96.59;102611.38;4994148;28;20536;-63
2023/02/28 04:17:24;;;;;;;11.53;3.47;;;;;;;-2.35;95.32;102613.03;4994106;28;20483;-64
2023/02/28 04:19:50;;;;;;;12.73;3.07;;;;;;;-2.48;96.00;102617.97;4993687;28;20583;-64
2023/02/28 04:22:18;;;;;;;10.03;3.40;;;;;;;-2.53;96.84;102617.66;4994128;28;20893;-64
2023/02/28 04:24:46;;;;;;;7.03;2.67;;;;;;;-2.56;96.04;102613.53;4993974;28;20440;-63
2023/02/28 04:27:12;;;;;;;7.13;2.50;;;;;;;-2.35;94.67;102626.28;4994038;28;20447;-65
2023/02/28 04:29:39;;;;;;;9.27;2.80;;;;;;;-2.43;94.18;102623.66;4994018;28;20552;-67
2023/02/28 04:32:06;;;;;;;7.07;3.23;;;;;;;-2.60;95.34;102629.94;4993924;28;20440;-65
2023/02/28 04:34:33;;;;;;;8.67;3.30;;;;;;;-2.71;95.44;102625.75;4993685;28;20953;-63
2023/02/28 04:37:00;;;;;;;8.10;2.80;;;;;;;-2.81;95.67;102622.41;4993589;28;20968;-64
2023/02/28 04:39:27;;;;;;;7.57;2.60;;;;;;;-2.78;94.89;102629.22;4993507;28;20469;-64
2023/02/28 04:41:55;;;;;;;7.07;2.33;;;;;;;-2.69;94.75;102620.31;4993537;28;20447;-64
2023/02/28 04:44:22;;;;;;;10.20;3.17;;;;;;;-2.77;96.57;102629.06;4993832;28;20471;-63
2023/02/28 04:46:50;;;;;;;7.50;2.73;;;;;;;-2.90;97.17;102624.22;4993520;28;20480;-63
2023/02/28 04:49:16;;;;;;;8.80;3.00;;;;;;;-2.90;96.07;102631.34;4993201;28;20457;-63
2023/02/28 04:51:43;;;;;;;7.73;2.97;;;;;;;-3.00;95.31;102628.84;4993717;28;20533;-64
2023/02/28 04:54:10;;;;;;;10.43;3.23;;;;;;;-3.09;96.06;102632.44;4993733;28;20441;-63
2023/02/28 04:56:36;;;;;;;7.20;2.80;;;;;;;-3.15;96.25;102628.59;4993409;28;20937;-63
2023/02/28 04:59:04;;;;;;;8.93;2.80;;;;;;;-2.95;96.27;102636.31;4993255;28;20993;-64
2023/02/28 05:01:33;;;;;;;7.57;2.60;;;;;;;-2.97;95.19;102632.97;4993728;28;20501;-63
2023/02/28 05:04:01;;;;;;;9.30;3.40;;;;;;;-3.02;94.64;102633.44;4993797;28;20467;-64
2023/02/28 05:06:29;;;;;;;8.03;2.97;;;;;;;-3.17;94.85;102633.22;4993736;28;20447;-63
2023/02/28 05:08:57;;;;;;;7.73;2.90;;;;;;;-3.13;95.44;102642.53;4993180;28;21061;-64
2023/02/28 05:11:25;;;;;;;7.37;2.83;;;;;;;-3.02;95.19;102643.22;4993582;28;20440;-62
2023/02/28 05:13:53;;;;;;;7.47;2.57;;;;;;;-2.99;94.73;102648.22;4993605;28;20806;-63
2023/02/28 05:16:21;;;;;;;9.33;3.27;;;;;;;-3.21;94.23;102634.53;4995119;28;20475;-63
2023/02/28 05:18:48;;;;;;;6.90;2.87;;;;;;;-3.25;94.27;102641.16;4993418;28;20544;-62
2023/02/28 05:21:26;;;;;;;8.37;3.10;;;;;;;-3.18;94.00;102633.41;4993087;28;21025;-63
2023/02/28 05:23:53;;;;;;;8.40;3.10;;;;;;;-3.23;94.11;102646.28;4993341;28;20429;-63
2023/02/28 05:26:20;;;;;;;9.33;3.30;;;;;;;-3.26;94.17;102643.97;4993491;28;20447;-63
2023/02/28 05:28:46;;;;;;;9.67;3.00;;;;;;;-3.13;93.19;102649.66;4993076;28;20528;-63
2023/02/28 05:31:13;;;;;;;9.47;2.80;;;;;;;-3.28;92.63;102645.91;4993471;28;20524;-64
2023/02/28 05:33:41;;;;;;;7.67;3.03;;;;;;;-3.30;93.71;102646.09;4993160;28;20899;-63
2023/02/28 05:36:08;;;;;;;7.07;3.30;;;;;;;-3.27;93.83;102644.97;4993362;28;20440;-63
2023/02/28 05:38:35;;;;;;;8.93;2.40;;;;;;;-3.28;93.31;102643.28;4993482;28;20543;-63
2023/02/28 05:41:06;;;;;;;9.00;3.10;;;;;;;-3.33;93.46;102652.53;4993243;28;20485;-63
2023/02/28 05:43:32;;;;;;;13.60;3.43;;;;;;;-3.28;93.93;102654.69;4993461;28;20433;-64
2023/02/28 05:45:59;;;;;;;8.53;3.70;;;;;;;-3.24;93.16;102653.41;4993298;28;20452;-65
2023/02/28 05:48:26;;;;;;;9.70;3.83;;;;;;;-3.37;93.56;102651.16;4993087;28;20448;-64
2023/02/28 05:50:54;;;;;;;7.80;3.07;;;;;;;-3.45;93.42;102661.75;4992731;28;20472;-63
2023/02/28 05:53:21;;;;;;;7.80;3.50;;;;;;;-3.57;94.30;102655.06;4992819;28;20535;-63
2023/02/28 05:55:48;;;;;;;8.67;3.67;;;;;;;-3.56;94.95;102662.81;4992830;28;20445;-64
2023/02/28 05:58:14;;;;;;;7.80;3.27;;;;;;;-3.45;93.21;102671.50;4992816;28;20448;-63
2023/02/28 06:00:41;;;;;;;11.10;3.60;;;;;;;-3.46;93.35;102673.31;4992363;28;20592;-64
2023/02/28 06:03:08;;;;;;;9.27;3.53;;;;;;;-3.49;95.19;102673.66;4995898;28;20452;-64
2023/02/28 06:05:34;;;;;;;9.60;3.70;;;;;;;-3.45;95.71;102669.69;4996021;28;20960;-63
2023/02/28 06:08:02;;;;;;;8.03;3.00;;;;;;;-3.47;96.61;102669.00;4996577;28;20455;-63
2023/02/28 06:10:29;;;;;;;6.77;2.77;;;;;;;-3.38;96.36;102673.38;4996451;28;20492;-64
2023/02/28 06:12:55;;;;;;;9.97;2.80;;;;;;;-3.22;95.09;102669.16;4996437;28;20452;-63
2023/02/28 06:15:22;;;;;;;13.73;2.87;;;;;;;-3.30;94.16;102676.06;4996362;28;20445;-61
2023/02/28 06:17:48;;;;;;;8.60;3.03;;;;;;;-3.24;94.73;102681.72;4996302;28;20457;-63
2023/02/28 06:20:15;;;;;;;11.00;3.63;;;;;;;-3.23;94.28;102686.88;4996160;28;20536;-63
2023/02/28 06:22:42;;;;;;;7.87;3.27;;;;;;;-3.34;95.04;102680.00;4996243;28;20445;-63
2023/02/28 06:25:11;;;;;;;11.37;3.90;;;;;;;-3.34;95.88;102682.66;4996225;28;20453;-63
2023/02/28 06:27:38;;;;;;;10.13;3.87;;;;;;;-3.30;95.38;102684.00;4995894;28;20953;-63
2023/02/28 06:30:06;;;;;;;8.60;3.60;;;;;;;-3.25;95.67;102688.00;4996079;28;20471;-63
2023/02/28 06:32:32;;;;;;;10.17;2.70;;;;;;;-3.22;95.34;102687.72;4996033;28;20441;-63
2023/02/28 06:34:59;;;;;;;12.40;3.53;;;;;;;-3.37;95.53;102690.91;4995609;28;20812;-64
2023/02/28 06:37:26;;;;;;;10.43;3.70;;;;;;;-3.39;94.20;102695.56;4995884;28;20499;-63
2023/02/28 06:39:55;;;;;;;9.40;3.60;;;;;;;-3.27;93.48;102697.94;4995895;28;20504;-63
2023/02/28 06:42:24;;;;;;;7.90;2.70;;;;;;;-3.33;94.47;102699.38;4995962;28;20489;-63
2023/02/28 06:44:51;;;;;;;9.53;3.60;;;;;;;-3.32;94.72;102704.53;4995780;28;20445;-64
2023/02/28 06:47:18;;;;;;;17.90;4.27;;;;;;;-3.38;94.57;102705.16;4995639;28;20449;-64
2023/02/28 06:49:45;;;;;;;7.93;2.90;;;;;;;-3.37;94.77;102706.81;4995805;28;20460;-64
2023/02/28 06:52:12;;;;;;;11.27;3.83;;;;;;;-3.24;94.87;102710.88;4995864;28;20445;-64
2023/02/28 06:54:38;;;;;;;8.20;3.07;;;;;;;-3.04;93.90;102709.66;4995595;28;20491;-63
2023/02/28 06:57:05;;;;;;;8.57;3.07;;;;;;;-3.13;94.23;102716.72;4995681;28;20455;-67
2023/02/28 06:59:33;;;;;;;8.90;2.87;;;;;;;-3.17;95.29;102718.03;4995088;28;20503;-67
2023/02/28 07:02:00;;;;;;;9.77;3.07;;;;;;;-3.00;94.57;102724.25;4995550;28;20481;-68
2023/02/28 07:04:27;;;;;;;10.93;3.67;;;;;;;-2.99;94.79;102717.13;4995631;28;20511;-69
2023/02/28 07:06:56;;;;;;;12.73;3.73;;;;;;;-2.97;95.79;102713.31;4995222;28;20539;-66
2023/02/28 07:09:23;;;;;;;7.67;3.67;;;;;;;-2.82;94.89;102718.88;4995384;28;20497;-64
2023/02/28 07:11:49;;;;;;;11.60;3.50;;;;;;;-2.76;95.59;102712.09;4995421;28;20528;-66
2023/02/28 07:14:16;;;;;;;7.90;3.60;;;;;;;-2.68;97.59;102714.78;4994547;28;20452;-66
2023/02/28 07:16:45;;;;;;;9.60;3.60;;;;;;;-2.58;98.05;102710.97;4995217;28;20484;-65
2023/02/28 07:19:11;;;;;;;10.80;3.37;;;;;;;-2.53;97.21;102713.97;4995277;28;20483;-66
2023/02/28 07:21:38;;;;;;;11.70;3.73;;;;;;;-2.38;97.99;102721.34;4995275;28;20484;-66
2023/02/28 07:24:05;;;;;;;12.13;3.40;;;;;;;-2.28;97.69;102712.22;4995508;28;20532;-66
2023/02/28 07:26:33;;;;;;;13.90;4.80;;;;;;;-2.16;97.89;102719.88;4995564;28;20448;-66
2023/02/28 07:29:00;;;;;;;9.77;4.50;;;;;;;-1.96;98.58;102721.22;4995440;28;20469;-65
2023/02/28 07:31:27;;;;;;;10.57;4.20;;;;;;;-1.80;97.56;102731.84;4995073;28;20445;-65
2023/02/28 07:33:56;;;;;;;14.93;3.90;;;;;;;-1.75;97.28;102722.56;4994985;28;20449;-65
2023/02/28 07:36:22;;;;;;;9.80;4.27;;;;;;;-1.70;97.76;102729.03;4995110;28;20442;-66
2023/02/28 07:38:49;;;;;;;15.00;5.27;;;;;;;-1.59;97.59;102727.88;4995215;28;20473;-66
2023/02/28 07:41:16;;;;;;;14.57;4.13;;;;;;;-1.52;97.54;102723.53;4994872;28;20543;-68
2023/02/28 07:43:44;;;;;;;10.20;4.07;;;;;;;-1.45;98.55;102729.84;4994919;28;20449;-68
2023/02/28 07:46:14;;;;;;;12.47;5.27;;;;;;;-1.34;98.08;102726.81;4995178;28;20480;-66
2023/02/28 07:48:41;;;;;;;10.10;4.40;;;;;;;-1.27;97.80;102722.50;4994758;28;20465;-65
2023/02/28 07:51:09;;;;;;;9.20;4.00;;;;;;;-1.22;98.27;102726.50;4994747;28;20453;-65
2023/02/28 07:53:36;;;;;;;13.43;4.83;;;;;;;-1.12;98.58;102732.44;4994690;28;20441;-65
2023/02/28 07:56:03;;;;;;;9.40;4.60;;;;;;;-1.00;99.04;102732.91;4994661;28;20970;-65
2023/02/28 07:58:31;;;;;;;10.23;3.97;;;;;;;-0.91;98.58;102727.38;4994577;28;21006;-66
2023/02/28 08:00:58;;;;;;;15.30;4.43;;;;;;;-0.82;98.65;102723.69;4994083;28;20871;-65
2023/02/28 08:03:25;;;;;;;12.30;4.80;;;;;;;-0.74;98.73;102724.69;4994837;28;20448;-66
2023/02/28 08:05:53;;;;;;;17.10;5.77;;;;;;;-0.66;99.12;102725.47;4994374;28;20451;-66
2023/02/28 08:08:21;;;;;;;9.23;4.17;;;;;;;-0.62;99.52;102725.94;4994054;28;20942;-66
2023/02/28 08:10:47;;;;;;;10.50;4.83;;;;;;;-0.51;98.89;102733.53;4994330;28;20464;-66
2023/02/28 08:13:14;;;;;;;13.40;5.17;;;;;;;-0.41;99.86;102730.66;4994380;28;20823;-67
2023/02/28 08:15:42;;;;;;;12.73;5.47;;;;;;;-0.28;99.40;102729.06;4994265;28;20453;-65
2023/02/28 08:18:09;;;;;;;10.50;4.93;;;;;;;-0.16;100.00;102720.69;4994215;28;20447;-66
2023/02/28 08:20:35;;;;;;;12.83;5.20;;;;;;;-0.12;100.00;102724.66;4993991;28;20556;-70
2023/02/28 08:23:02;;;;;;;11.43;5.10;;;;;;;0.01;100.00;102726.75;4993815;28;20817;-66
2023/02/28 08:25:30;;;;;;;12.53;4.90;;;;;;;0.14;100.00;102721.66;4994140;28;20492;-66
2023/02/28 08:27:56;;;;;;;13.30;5.30;;;;;;;0.19;99.83;102725.44;4993916;28;20476;-66
2023/02/28 08:30:23;;;;;;;21.87;5.80;;;;;;;0.40;98.97;102722.09;4993642;28;20468;-66
2023/02/28 08:32:50;;;;;;;13.80;5.57;;;;;;;0.47;98.71;102719.50;4993933;28;20445;-67
2023/02/28 08:35:16;;;;;;;10.53;4.17;;;;;;;0.66;97.97;102715.50;4993881;28;20524;-66
2023/02/28 08:37:43;;;;;;;18.90;5.93;;;;;;;0.85;96.83;102725.66;4993906;28;20532;-66
2023/02/28 08:40:13;;;;;;;13.90;6.00;;;;;;;0.94;95.43;102727.22;4993876;28;20469;-66
2023/02/28 08:42:41;;;;;;;13.70;6.57;;;;;;;1.05;94.09;102731.25;4993839;28;20480;-66
2023/02/28 08:45:08;;;;;;;16.60;5.43;;;;;;;1.11;93.08;102735.88;4993902;28;20444;-65
2023/02/28 08:47:34;;;;;;;10.97;4.50;;;;;;;1.16;92.04;102728.13;4993747;28;20476;-65
2023/02/28 08:50:01;;;;;;;11.43;4.67;;;;;;;1.27;89.94;102726.81;4993774;28;20472;-64
2023/02/28 08:52:28;;;;;;;11.60;4.70;;;;;;;1.37;86.68;102730.00;4993770;28;20532;-65
2023/02/28 08:54:54;;;;;;;12.70;4.33;;;;;;;1.43;83.52;102731.13;4993496;28;20437;-64
2023/02/28 08:57:21;;;;;;;10.67;4.37;;;;;;;1.57;83.28;102732.94;4993656;28;20456;-64
2023/02/28 08:59:49;;;;;;;9.80;3.70;;;;;;;1.68;81.42;102729.78;4993561;28;20477;-65
2023/02/28 09:02:15;;;;;;;11.20;4.20;;;;;;;1.81;77.57;102731.75;4993220;28;20481;-64
2023/02/28 09:04:45;;;;;;;10.17;3.50;;;;;;;1.96;77.79;102735.22;4993294;28;20537;-64
2023/02/28 09:07:12;;;;;;;9.37;3.53;;;;;;;2.02;73.50;102741.63;4993638;28;20462;-64
2023/02/28 09:09:53;;;;;;;9.13;2.43;;;;;;;2.12;72.66;102731.44;4993541;28;20457;-65
2023/02/28 09:12:20;;;;;;;6.90;2.53;;;;;;;2.25;71.44;102739.59;4993696;28;20849;-65
2023/02/28 09:14:47;;;;;;;7.10;2.40;;;;;;;2.36;70.28;102742.78;4993531;28;20455;-64
2023/02/28 09:17:15;;;;;;;6.30;1.67;;;;;;;2.43;67.13;102752.50;4993562;28;20451;-65
2023/02/28 09:19:42;;;;;;;6.40;1.80;;;;;;;2.60;66.49;102739.66;4993489;28;20496;-65
2023/02/28 09:22:09;;;;;;;5.40;1.27;;;;;;;2.74;64.81;102741.41;4993384;28;20489;-66
2023/02/28 09:24:36;;;;;;;11.40;1.47;;;;;;;2.83;61.77;102747.44;4993496;28;20543;-65
2023/02/28 09:27:03;;;;;;;5.47;1.47;;;;;;;2.88;61.37;102745.03;4993434;28;20537;-65
2023/02/28 09:29:30;;;;;;;7.23;1.60;;;;;;;2.92;59.48;102745.44;4993145;28;20475;-65
2023/02/28 09:31:58;;;;;;;9.20;2.13;;;;;;;3.08;60.38;102736.28;4993434;28;20472;-64
2023/02/28 09:34:26;;;;;;;6.77;2.50;;;;;;;3.19;61.21;102733.06;4993449;28;20457;-65
2023/02/28 09:36:54;;;;;;;7.73;2.07;;;;;;;3.20;60.13;102738.19;4995360;28;20445;-65
2023/02/28 09:39:21;;;;;;;6.53;2.13;;;;;;;3.17;58.39;102738.59;4996900;28;20468;-64
2023/02/28 09:41:52;;;;;;;6.67;2.00;;;;;;;3.29;59.59;102737.00;4996936;28;20480;-64
2023/02/28 09:44:26;;;;;;;7.67;1.70;;;;;;;3.38;58.78;102739.53;4997057;28;20512;-65
2023/02/28 09:46:59;;;;;;;6.93;2.10;;;;;;;3.45;58.76;102737.69;4996944;28;20434;-65
2023/02/28 09:49:37;;;;;;;8.30;2.20;;;;;;;3.42;57.00;102733.56;4996894;28;20513;-65
2023/02/28 09:52:08;;;;;;;6.20;1.77;;;;;;;3.34;57.26;102738.25;4996880;28;20465;-65
2023/02/28 09:54:36;;;;;;;7.23;2.27;;;;;;;3.40;57.99;102740.13;4996561;28;20473;-65
2023/02/28 09:57:09;;;;;;;8.27;2.70;;;;;;;3.38;56.04;102747.56;4996726;28;20437;-65
2023/02/28 10:00:00;;;;;;;8.67;1.93;;;;;;;3.35;55.65;102739.91;4996173;28;20578;-65
2023/02/28 10:02:59;;;;;;;8.20;2.20;;;;;;;3.48;56.67;102737.28;4996575;28;20469;-65
2023/02/28 10:05:32;;;;;;;7.13;2.27;;;;;;;3.71;57.89;102734.25;4981451;28;20465;-65
2023/02/28 10:08:08;;;;;;;6.37;2.23;;;;;;;3.83;57.14;102739.88;4996216;28;20429;-65
2023/02/28 10:10:39;;;;;;;6.80;1.90;;;;;;;3.91;56.45;102742.38;4996533;28;20478;-65
2023/02/28 10:13:15;;;;;;;6.20;1.83;;;;;;;3.96;57.37;102743.41;4996495;28;20519;-65
2023/02/28 10:15:43;;;;;;;7.00;1.40;;;;;;;4.15;55.95;102749.81;4996107;28;20914;-65
2023/02/28 10:18:15;;;;;;;8.30;2.10;;;;;;;4.19;54.49;102751.06;4996270;28;20445;-64
2023/02/28 10:20:44;;;;;;;6.03;1.60;;;;;;;4.21;53.36;102749.03;4996065;28;20515;-67
2023/02/28 10:23:17;;;;;;;6.33;1.70;;;;;;;4.29;53.25;102743.47;4996176;28;20853;-66
2023/02/28 10:25:49;;;;;;;5.97;1.30;;;;;;;4.28;52.06;102749.84;4996294;28;20524;-67
2023/02/28 10:28:18;;;;;;;9.03;1.87;;;;;;;4.32;52.15;102752.13;4996197;28;20472;-66
2023/02/28 10:30:48;;;;;;;7.40;1.63;;;;;;;4.42;53.54;102745.28;4995805;28;20469;-66
2023/02/28 10:33:24;;;;;;;5.40;1.33;;;;;;;4.51;51.85;102752.09;4995735;28;20452;-67
2023/02/28 10:35:53;;;;;;;5.33;1.37;;;;;;;4.63;52.32;102743.44;4996039;28;20548;-67
2023/02/28 10:38:22;;;;;;;5.93;1.37;;;;;;;4.72;51.95;102734.97;4995992;28;20449;-65
2023/02/28 10:40:49;;;;;;;5.50;1.53;;;;;;;4.77;51.29;102745.91;4995625;28;20472;-67
2023/02/28 10:43:24;;;;;;;5.90;1.60;;;;;;;4.79;51.00;102743.03;4995905;28;20484;-66
2023/02/28 10:45:58;;;;;;;5.17;1.37;;;;;;;4.83;50.84;102740.75;4995901;28;20463;-66
2023/02/28 10:48:34;;;;;;;5.80;1.50;;;;;;;4.82;50.19;102747.94;4995501;28;20511;-66
2023/02/28 10:51:03;;;;;;;6.70;1.67;;;;;;;4.95;51.03;102742.56;4995558;28;20500;-66
2023/02/28 10:53:34;;;;;;;6.77;1.17;;;;;;;4.98;50.38;102738.66;4995789;28;20525;-66
2023/02/28 10:56:02;;;;;;;6.70;1.20;;;;;;;5.11;51.10;102737.78;4995699;28;20445;-66
2023/02/28 10:58:31;;;;;;;6.10;1.63;;;;;;;5.22;49.79;102743.34;4995372;28;20477;-66
2023/02/28 11:01:00;;;;;;;5.30;1.07;;;;;;;5.40;49.73;102742.66;4995294;28;20453;-66
2023/02/28 11:03:32;;;;;;;6.40;1.67;;;;;;;5.51;50.30;102730.41;4995205;28;20539;-66
2023/02/28 11:06:04;;;;;;;5.20;1.10;;;;;;;5.45;47.64;102733.94;4995304;28;21013;-66
2023/02/28 11:08:32;;;;;;;7.90;1.80;;;;;;;5.28;47.88;102733.59;4995382;28;20433;-66
2023/02/28 11:11:04;;;;;;;5.57;1.23;;;;;;;5.49;49.68;102724.41;4995399;28;20449;-66
2023/02/28 11:13:33;;;;;;;5.47;1.40;;;;;;;5.76;49.87;102728.63;4995351;28;20516;-67
2023/02/28 11:16:03;;;;;;;5.67;1.37;;;;;;;5.91;47.95;102724.81;5013382;28;20460;-66
2023/02/28 11:18:32;;;;;;;6.60;1.60;;;;;;;6.05;48.11;102713.75;5014544;28;20444;-67
2023/02/28 11:21:02;;;;;;;6.10;1.57;;;;;;;6.15;47.85;102720.53;5014731;28;20531;-65
2023/02/28 11:23:31;;;;;;;5.50;1.33;;;;;;;6.07;46.04;102708.19;5014776;28;20556;-66
2023/02/28 11:26:01;;;;;;;5.13;1.40;;;;;;;6.29;47.17;102711.31;5014328;28;20451;-66
2023/02/28 11:28:32;;;;;;;7.63;1.40;;;;;;;6.52;47.35;102714.22;5015037;28;20785;-66
2023/02/28 11:31:05;;;;;;;6.40;1.77;;;;;;;7.10;47.59;102707.63;5014386;28;20437;-67
2023/02/28 11:33:37;;;;;;;4.80;1.00;;;;;;;7.86;45.58;102697.28;5014676;28;20507;-66
2023/02/28 11:36:10;;;;;;;5.20;1.10;;;;;;;8.79;44.31;102702.78;5014508;28;20809;-67